Time;durP1;ratioP1;P1;durP2;ratioP2;P2;SDS_P1;SDS_P2;PMS_P1;PMS_P2;Temp;Humidity;BMP_temperature;BMP_pressure;BME280_temperature;BME280_humidity;BME280_pressure;Samples;Min_cycle;Max_cycle;Signal;HPM_P1;HPM_P2
2021/08/01 00:01:28;;;;;;;6.37;4.60;;;;;;;17.28;75.82;100593.19;5960257;29;20241;-48
2021/08/01 00:04:49;;;;;;;5.60;4.73;;;;;;;17.15;75.61;100576.16;5973440;29;20279;-47
2021/08/01 00:08:10;;;;;;;4.53;4.10;;;;;;;17.38;74.51;100581.34;5972078;29;20236;-47
2021/08/01 00:11:32;;;;;;;5.57;3.80;;;;;;;17.39;75.36;100582.19;5966398;29;20244;-52
2021/08/01 00:14:54;;;;;;;5.37;4.47;;;;;;;16.94;76.04;100583.97;5965309;29;22990;-48
2021/08/01 00:18:15;;;;;;;4.87;4.37;;;;;;;17.48;74.02;100572.13;5965789;29;20334;-48
2021/08/01 00:21:35;;;;;;;4.73;4.20;;;;;;;17.57;73.75;100570.91;5965722;29;20240;-49
2021/08/01 00:24:57;;;;;;;4.87;4.47;;;;;;;17.88;72.50;100580.19;5965028;29;20243;-48
2021/08/01 00:28:18;;;;;;;4.77;4.37;;;;;;;17.34;74.47;100579.75;5970543;29;20239;-49
2021/08/01 00:31:39;;;;;;;5.50;4.97;;;;;;;17.47;73.42;100570.44;5967127;29;20879;-48
2021/08/01 00:35:00;;;;;;;4.63;4.23;;;;;;;17.20;74.55;100577.69;5960658;29;20244;-53
2021/08/01 00:38:21;;;;;;;5.80;5.20;;;;;;;17.50;73.33;100574.72;5971148;29;20690;-53
2021/08/01 00:41:43;;;;;;;6.22;4.60;;;;;;;17.26;73.97;100584.50;5969485;29;20595;-50
2021/08/01 00:45:07;;;;;;;4.55;4.18;;;;;;;17.38;73.80;100580.50;5973544;29;20507;-51
2021/08/01 00:48:28;;;;;;;4.25;3.95;;;;;;;17.63;72.20;100585.59;5968713;29;20244;-52
2021/08/01 00:51:49;;;;;;;4.60;4.20;;;;;;;17.73;72.22;100586.91;5969989;29;20236;-51
2021/08/01 00:55:12;;;;;;;4.70;4.03;;;;;;;16.95;74.21;100593.59;5971050;29;20540;-49
2021/08/01 00:58:33;;;;;;;7.17;5.07;;;;;;;16.79;75.20;100580.16;5966718;29;20247;-49
2021/08/01 01:02:00;;;;;;;6.32;5.70;;;;;;;17.18;74.38;100579.53;5969427;29;20315;-50
2021/08/01 01:05:25;;;;;;;5.65;5.15;;;;;;;17.10;74.30;100576.34;5975918;29;20591;-54
2021/08/01 01:08:54;;;;;;;6.22;5.25;;;;;;;16.90;75.76;100574.50;5973014;29;20235;-53
2021/08/01 01:12:30;;;;;;;5.25;4.53;;;;;;;17.38;73.68;100554.19;5963044;29;20228;-52
2021/08/01 01:15:54;;;;;;;5.47;4.33;;;;;;;17.62;72.32;100560.19;5969121;29;20239;-52
2021/08/01 01:19:26;;;;;;;5.20;4.70;;;;;;;17.42;73.38;100567.13;5965919;29;20224;-53
2021/08/01 01:22:52;;;;;;;6.20;4.50;;;;;;;17.18;74.65;100557.63;5986832;29;20235;-52
2021/08/01 01:26:55;;;;;;;4.73;4.37;;;;;;;17.00;75.21;100554.81;5971408;29;20259;-54
2021/08/01 01:30:16;;;;;;;5.45;4.60;;;;;;;16.98;75.06;100561.91;5982311;29;20235;-49
2021/08/01 01:33:44;;;;;;;5.90;4.63;;;;;;;17.03;74.87;100559.09;5970780;29;20236;-51
2021/08/01 01:37:10;;;;;;;4.87;4.37;;;;;;;17.29;73.54;100550.13;5973923;29;20239;-52
2021/08/01 01:40:31;;;;;;;5.90;4.37;;;;;;;16.87;75.55;100553.59;5973996;29;20240;-54
2021/08/01 01:44:12;;;;;;;4.93;4.53;;;;;;;16.93;75.59;100561.25;5967367;29;20240;-50
2021/08/01 01:47:34;;;;;;;4.90;4.40;;;;;;;17.35;73.77;100557.81;5969474;29;20630;-55
2021/08/01 01:50:55;;;;;;;4.87;4.40;;;;;;;17.32;73.85;100561.41;5966666;29;20264;-51
2021/08/01 01:54:19;;;;;;;6.90;4.97;;;;;;;17.51;73.04;100569.38;5975023;29;20236;-51
2021/08/01 01:57:40;;;;;;;4.17;3.87;;;;;;;17.16;74.36;100575.22;5967450;29;20232;-50
2021/08/01 02:01:02;;;;;;;5.43;4.93;;;;;;;17.20;74.18;100574.22;5952284;29;20513;-50
2021/08/01 02:04:24;;;;;;;4.40;4.00;;;;;;;17.41;73.11;100564.56;5967767;29;20622;-49
2021/08/01 02:08:03;;;;;;;4.40;3.80;;;;;;;17.41;72.88;100565.44;5963662;29;20240;-48
2021/08/01 02:11:57;;;;;;;5.73;4.80;;;;;;;17.36;73.27;100570.03;5970496;29;20236;-48
2021/08/01 02:15:34;;;;;;;6.70;5.37;;;;;;;16.93;75.12;100562.09;5965016;29;20251;-52
2021/08/01 02:19:00;;;;;;;4.50;4.17;;;;;;;17.19;74.41;100548.81;5967044;29;20228;-48
2021/08/01 02:22:21;;;;;;;5.70;4.93;;;;;;;17.11;74.23;100560.50;5959141;29;20248;-53
2021/08/01 02:25:43;;;;;;;6.57;5.75;;;;;;;17.19;74.61;100551.44;5963309;29;20236;-48
2021/08/01 02:29:06;;;;;;;5.38;4.85;;;;;;;17.11;74.54;100547.34;5972993;29;20599;-50
2021/08/01 02:32:30;;;;;;;8.33;6.47;;;;;;;17.49;73.00;100542.28;5972225;29;20236;-49
2021/08/01 02:35:51;;;;;;;7.95;5.30;;;;;;;17.44;73.49;100546.03;5965630;29;20244;-53
2021/08/01 02:39:14;;;;;;;5.47;5.07;;;;;;;17.72;71.89;100527.28;5972311;29;20333;-50
2021/08/01 02:42:38;;;;;;;6.87;4.77;;;;;;;17.60;72.66;100533.06;5967766;29;20248;-50
2021/08/01 02:46:02;;;;;;;5.87;4.33;;;;;;;17.72;72.54;100527.28;5974239;29;20589;-51
2021/08/01 02:49:27;;;;;;;5.77;4.43;;;;;;;17.30;74.00;100536.91;5979833;29;20614;-48
2021/08/01 02:52:57;;;;;;;6.90;5.30;;;;;;;17.32;74.19;100539.50;5966308;29;20240;-52
2021/08/01 02:56:21;;;;;;;5.73;5.20;;;;;;;17.03;75.21;100549.44;5969023;29;20612;-52
2021/08/01 03:13:42;;;;;;;9.50;6.33;;;;;;;17.16;76.21;100554.19;5957250;29;20260;-48
2021/08/01 03:17:04;;;;;;;7.87;6.00;;;;;;;16.86;77.23;100541.34;5962366;29;20240;-56
2021/08/01 03:20:25;;;;;;;5.93;5.40;;;;;;;17.10;76.59;100550.91;5976160;29;20244;-54
2021/08/01 03:24:05;;;;;;;7.10;6.40;;;;;;;17.00;78.11;100539.03;5974804;29;20267;-52
2021/08/01 03:27:47;;;;;;;7.50;6.40;;;;;;;16.44;80.39;100549.94;5970035;29;20236;-54
2021/08/01 03:31:09;;;;;;;7.33;6.63;;;;;;;16.90;78.70;100548.19;5973776;29;20271;-53
2021/08/01 03:34:40;;;;;;;7.57;6.87;;;;;;;16.77;79.58;100557.44;5960062;29;20634;-52
2021/08/01 03:38:01;;;;;;;7.13;6.47;;;;;;;16.65;80.83;100564.91;5967224;29;20626;-51
2021/08/01 03:41:42;;;;;;;10.23;5.77;;;;;;;16.63;80.13;100581.66;5947773;29;20251;-51
2021/08/01 03:45:10;;;;;;;5.27;4.77;;;;;;;16.56;80.25;100575.78;5965426;29;20694;-49
2021/08/01 03:48:33;;;;;;;7.33;6.13;;;;;;;16.80;79.36;100578.38;5966470;29;20622;-52
2021/08/01 03:51:54;;;;;;;6.23;5.73;;;;;;;16.88;78.15;100586.84;5968174;29;20240;-51
2021/08/01 03:55:15;;;;;;;8.40;5.80;;;;;;;16.88;77.88;100592.13;5966809;29;20639;-49
2021/08/01 03:58:36;;;;;;;5.77;4.87;;;;;;;17.09;76.28;100596.53;5970012;29;20243;-50
2021/08/01 04:01:59;;;;;;;6.00;4.27;;;;;;;17.10;75.57;100598.25;5969879;29;20244;-50
2021/08/01 04:05:21;;;;;;;4.37;4.03;;;;;;;17.32;75.31;100592.97;5968095;29;20768;-55
2021/08/01 04:08:42;;;;;;;4.97;4.50;;;;;;;17.34;75.11;100581.53;5974552;29;20231;-48
2021/08/01 04:12:03;;;;;;;7.37;4.37;;;;;;;17.37;75.35;100579.66;5962576;29;20240;-53
2021/08/01 04:15:24;;;;;;;4.07;3.67;;;;;;;17.59;74.75;100573.50;5966243;29;20275;-53
2021/08/01 04:18:44;;;;;;;7.07;4.27;;;;;;;17.29;74.84;100579.09;5958285;29;20239;-52
2021/08/01 04:22:07;;;;;;;6.07;4.10;;;;;;;17.12;75.80;100585.06;5968745;29;20510;-50
2021/08/01 04:25:28;;;;;;;6.97;5.27;;;;;;;17.06;76.36;100580.88;5962351;29;20532;-52
2021/08/01 04:28:49;;;;;;;6.43;4.30;;;;;;;17.02;76.38;100589.81;5983220;29;20239;-53
2021/08/01 04:32:10;;;;;;;5.33;4.83;;;;;;;16.85;77.23;100602.78;5969531;29;20239;-53
2021/08/01 04:35:31;;;;;;;6.27;5.47;;;;;;;17.32;75.32;100610.56;5973591;29;20278;-54
2021/08/01 04:38:53;;;;;;;6.27;5.67;;;;;;;17.12;76.01;100611.34;5969183;29;20248;-52
2021/08/01 04:42:13;;;;;;;7.07;5.17;;;;;;;17.22;75.29;100609.22;5971906;29;20244;-52
2021/08/01 04:45:34;;;;;;;7.57;5.77;;;;;;;16.95;75.99;100604.13;5973766;29;20235;-51
2021/08/01 04:48:55;;;;;;;8.80;6.10;;;;;;;16.92;76.31;100620.88;5967688;29;20524;-52
2021/08/01 04:52:17;;;;;;;6.60;5.97;;;;;;;17.26;75.73;100613.44;5975354;29;20242;-49
2021/08/01 04:55:39;;;;;;;10.07;6.03;;;;;;;17.23;74.45;100603.03;5973004;29;20236;-52
2021/08/01 04:59:01;;;;;;;10.37;6.80;;;;;;;17.48;74.17;100614.25;5967838;29;20236;-53
2021/08/01 05:02:22;;;;;;;7.93;7.30;;;;;;;17.25;74.71;100611.72;5974666;29;20604;-50
2021/08/01 05:05:43;;;;;;;7.70;6.90;;;;;;;16.81;76.41;100624.78;5968721;29;20232;-51
2021/08/01 05:09:04;;;;;;;8.83;6.50;;;;;;;17.50;73.83;100617.69;5973538;29;20697;-51
2021/08/01 05:12:27;;;;;;;14.03;7.37;;;;;;;17.24;74.65;100621.38;5976302;29;20253;-53
2021/08/01 05:15:47;;;;;;;10.00;8.00;;;;;;;17.23;74.82;100629.34;5973001;29;20240;-51
2021/08/01 05:19:08;;;;;;;8.00;7.30;;;;;;;17.20;75.13;100634.75;5976257;29;20240;-53
2021/08/01 05:22:29;;;;;;;20.20;9.87;;;;;;;16.85;76.11;100629.91;5972334;29;20244;-47
2021/08/01 05:25:51;;;;;;;11.50;8.00;;;;;;;17.42;73.87;100642.63;5974745;29;20611;-53
2021/08/01 05:29:14;;;;;;;10.40;7.27;;;;;;;17.40;73.53;100634.78;5972694;29;20591;-52
2021/08/01 05:32:35;;;;;;;9.53;7.30;;;;;;;17.41;73.20;100638.25;5978348;29;20248;-54
2021/08/01 05:35:55;;;;;;;7.40;6.70;;;;;;;17.53;72.62;100622.00;5972308;29;20610;-49
2021/08/01 05:39:16;;;;;;;7.70;6.93;;;;;;;17.54;72.94;100622.84;5964407;29;20227;-49
2021/08/01 05:42:38;;;;;;;10.50;7.13;;;;;;;17.31;73.20;100619.34;5971790;29;20244;-54
2021/08/01 05:46:01;;;;;;;7.67;6.80;;;;;;;17.21;73.90;100628.53;5972853;29;20244;-49
2021/08/01 05:49:21;;;;;;;7.33;6.13;;;;;;;17.58;71.98;100624.41;5979015;29;20239;-51
2021/08/01 05:52:42;;;;;;;13.17;7.03;;;;;;;17.37;72.39;100621.75;5982279;29;20307;-55
2021/08/01 05:56:10;;;;;;;12.03;9.27;;;;;;;17.37;72.20;100631.41;5976270;29;21055;-49
2021/08/01 05:59:32;;;;;;;9.87;7.97;;;;;;;17.16;73.41;100638.38;5977395;29;20235;-49
2021/08/01 06:02:55;;;;;;;10.87;7.87;;;;;;;17.30;73.53;100636.06;5966284;29;20524;-49
2021/08/01 06:06:17;;;;;;;7.47;6.77;;;;;;;17.65;73.22;100628.53;5970543;29;20323;-52
2021/08/01 06:09:40;;;;;;;9.70;8.70;;;;;;;18.06;70.30;100626.78;5970742;29;20245;-49
2021/08/01 06:13:00;;;;;;;10.40;9.40;;;;;;;17.68;71.62;100620.47;5973144;29;20330;-51
2021/08/01 06:16:22;;;;;;;16.53;9.17;;;;;;;18.01;69.82;100618.25;5976053;29;20255;-52
2021/08/01 06:19:44;;;;;;;11.80;9.10;;;;;;;18.45;68.93;100623.31;5968447;29;20236;-51
2021/08/01 06:23:05;;;;;;;14.63;9.13;;;;;;;17.78;70.31;100621.81;5973989;29;20243;-49
2021/08/01 06:26:26;;;;;;;11.40;7.32;;;;;;;18.48;67.82;100611.78;5967660;29;20239;-50
2021/08/01 06:29:47;;;;;;;10.33;8.10;;;;;;;18.44;68.37;100610.22;5976491;29;20243;-51
2021/08/01 06:33:08;;;;;;;8.95;8.10;;;;;;;18.26;69.17;100601.34;5974460;29;20279;-48
2021/08/01 06:36:30;;;;;;;16.55;8.80;;;;;;;18.28;68.91;100610.91;5972769;29;20362;-50
2021/08/01 06:39:51;;;;;;;12.95;9.15;;;;;;;17.91;70.04;100624.81;5974379;29;20620;-52
2021/08/01 06:43:12;;;;;;;9.10;7.50;;;;;;;18.59;68.16;100628.00;5974210;29;20252;-51
2021/08/01 06:46:33;;;;;;;8.40;7.60;;;;;;;18.37;68.62;100624.59;5978792;29;20236;-48
2021/08/01 06:49:54;;;;;;;11.90;7.18;;;;;;;18.52;68.33;100623.06;5972271;29;20248;-49
2021/08/01 06:53:16;;;;;;;10.68;8.07;;;;;;;18.10;69.13;100631.00;5972904;29;20236;-50
2021/08/01 06:56:37;;;;;;;13.13;8.40;;;;;;;18.13;69.10;100627.41;5969922;29;20247;-50
2021/08/01 06:59:58;;;;;;;9.57;7.90;;;;;;;17.96;69.53;100633.38;5969676;29;20239;-51
2021/08/01 07:03:20;;;;;;;11.23;7.20;;;;;;;18.25;69.09;100632.13;5975591;29;20232;-47
2021/08/01 07:06:41;;;;;;;11.00;7.82;;;;;;;18.39;68.23;100633.28;5974411;29;20362;-52
2021/08/01 07:10:04;;;;;;;11.17;7.90;;;;;;;18.16;68.81;100631.66;5957511;29;20232;-51
2021/08/01 07:13:25;;;;;;;7.90;6.87;;;;;;;18.17;68.13;100628.97;5975009;29;20271;-51
2021/08/01 07:16:45;;;;;;;9.00;7.57;;;;;;;18.19;68.97;100637.66;5969923;29;20618;-48
2021/08/01 07:20:08;;;;;;;11.63;9.90;;;;;;;18.25;68.08;100642.66;5978355;29;20239;-53
2021/08/01 07:23:29;;;;;;;13.70;9.73;;;;;;;18.00;68.96;100647.28;5966279;29;20240;-54
2021/08/01 07:26:53;;;;;;;13.05;10.52;;;;;;;18.22;68.08;100648.09;5973072;29;20240;-55
2021/08/01 07:30:15;;;;;;;10.57;9.57;;;;;;;18.44;68.36;100637.44;5964600;29;20251;-50
2021/08/01 07:33:36;;;;;;;10.82;9.70;;;;;;;18.39;69.42;100630.66;5961347;29;20573;-54
2021/08/01 07:36:57;;;;;;;13.20;11.70;;;;;;;18.19;69.37;100642.94;5966204;29;20302;-50
2021/08/01 07:40:18;;;;;;;9.70;8.32;;;;;;;19.24;65.64;100633.75;5968687;29;20231;-52
2021/08/01 07:43:40;;;;;;;9.73;8.73;;;;;;;19.53;64.52;100635.94;5972636;29;20244;-52
2021/08/01 07:47:01;;;;;;;12.30;9.80;;;;;;;20.06;62.42;100632.38;5966800;29;20263;-49
2021/08/01 07:50:22;;;;;;;10.80;8.43;;;;;;;20.05;62.76;100635.97;5969634;29;20232;-53
2021/08/01 07:53:43;;;;;;;10.30;9.13;;;;;;;19.42;65.06;100637.28;5966696;29;20231;-50
2021/08/01 07:57:04;;;;;;;9.10;8.15;;;;;;;20.02;63.20;100630.84;5962701;29;20239;-53
2021/08/01 08:00:27;;;;;;;13.93;11.93;;;;;;;19.62;64.74;100643.41;5973454;29;20858;-45
2021/08/01 08:03:47;;;;;;;58.97;53.97;;;;;;;19.78;63.58;100633.81;5977261;29;20329;-50
2021/08/01 08:07:08;;;;;;;181.77;164.65;;;;;;;19.64;64.12;100631.81;5972997;29;20246;-48
2021/08/01 08:10:29;;;;;;;697.78;645.45;;;;;;;19.76;65.42;100627.75;5977332;29;20248;-47
2021/08/01 08:13:50;;;;;;;135.30;120.97;;;;;;;19.66;64.20;100619.41;5975801;29;20334;-48
2021/08/01 08:17:12;;;;;;;584.20;528.53;;;;;;;20.13;62.66;100620.56;5976021;29;20361;-51
2021/08/01 08:20:33;;;;;;;182.35;168.00;;;;;;;19.26;63.87;100626.63;5974613;29;20235;-47
2021/08/01 08:23:55;;;;;;;106.40;96.68;;;;;;;19.71;61.56;100621.78;5972363;29;20701;-51
2021/08/01 08:27:15;;;;;;;59.53;54.15;;;;;;;20.52;60.16;100619.41;5973861;29;20239;-53
2021/08/01 08:30:36;;;;;;;8.88;8.07;;;;;;;20.23;59.80;100613.84;5979252;29;20238;-53
2021/08/01 08:33:58;;;;;;;10.55;9.13;;;;;;;20.36;59.66;100619.38;5980497;29;20247;-53
2021/08/01 08:37:19;;;;;;;7.75;6.95;;;;;;;19.22;62.67;100629.50;5960428;29;20240;-55
2021/08/01 08:40:40;;;;;;;7.28;6.57;;;;;;;20.05;60.52;100628.06;5972358;29;20240;-50
2021/08/01 08:44:01;;;;;;;12.55;7.47;;;;;;;20.11;60.52;100627.72;5975823;29;20596;-49
2021/08/01 08:47:26;;;;;;;8.32;6.82;;;;;;;20.30;59.87;100611.75;5970012;29;20236;-51
2021/08/01 08:50:50;;;;;;;8.10;6.65;;;;;;;20.16;60.16;100617.78;5963597;29;20236;-51
2021/08/01 08:54:15;;;;;;;7.18;6.43;;;;;;;21.00;58.19;100620.34;5974136;29;20331;-52
2021/08/01 08:57:39;;;;;;;9.23;6.70;;;;;;;20.12;59.98;100620.66;5976539;29;20504;-51
2021/08/01 09:01:00;;;;;;;7.55;6.35;;;;;;;20.86;57.90;100622.91;5972114;29;20698;-52
2021/08/01 09:04:22;;;;;;;6.38;5.80;;;;;;;20.03;60.28;100629.94;5966628;29;20255;-54
2021/08/01 09:07:44;;;;;;;6.70;5.63;;;;;;;19.88;60.61;100628.06;5976200;29;20259;-51
2021/08/01 09:11:05;;;;;;;7.00;5.97;;;;;;;20.42;59.78;100623.47;5968196;29;20244;-51
2021/08/01 09:14:26;;;;;;;6.13;5.53;;;;;;;20.26;59.94;100621.66;5968808;29;20784;-55
2021/08/01 09:17:48;;;;;;;5.82;5.22;;;;;;;20.72;59.41;100625.44;5974208;29;20709;-55
2021/08/01 09:21:09;;;;;;;7.88;6.40;;;;;;;19.47;61.24;100634.44;5971761;29;20245;-52
2021/08/01 09:24:34;;;;;;;6.00;5.38;;;;;;;19.50;61.70;100622.88;5970504;29;20517;-50
2021/08/01 09:28:06;;;;;;;5.65;5.07;;;;;;;19.43;61.71;100622.31;5981402;29;20790;-48
2021/08/01 09:31:27;;;;;;;4.82;4.28;;;;;;;20.12;59.63;100615.34;5976364;29;20360;-50
2021/08/01 09:34:49;;;;;;;6.70;5.50;;;;;;;20.67;58.74;100606.31;5970658;29;20828;-50
2021/08/01 09:38:10;;;;;;;6.10;5.50;;;;;;;20.16;59.32;100622.19;5973897;29;20240;-48
2021/08/01 09:41:37;;;;;;;6.60;5.43;;;;;;;20.14;59.60;100618.78;5968499;29;21427;-51
2021/08/01 09:45:12;;;;;;;6.90;4.97;;;;;;;20.71;58.27;100613.16;5986782;29;20695;-49
2021/08/01 09:48:32;;;;;;;4.40;4.00;;;;;;;20.87;56.66;100607.88;5963576;29;20619;-52
2021/08/01 09:51:54;;;;;;;4.90;3.80;;;;;;;21.43;55.22;100598.50;5974320;29;20237;-53
2021/08/01 09:55:17;;;;;;;4.80;4.40;;;;;;;22.19;52.65;100594.91;5948729;29;20236;-52
2021/08/01 09:58:40;;;;;;;4.50;3.28;;;;;;;22.54;51.66;100595.41;5971532;29;20594;-50
2021/08/01 10:02:03;;;;;;;4.38;3.67;;;;;;;21.41;53.95;100595.94;5972468;29;20231;-52
2021/08/01 10:05:25;;;;;;;8.38;4.57;;;;;;;21.33;54.54;100600.81;5971532;29;20264;-52
2021/08/01 10:08:47;;;;;;;3.85;3.45;;;;;;;22.11;52.12;100581.28;5960819;29;20255;-50
2021/08/01 10:12:09;;;;;;;3.45;2.80;;;;;;;21.46;54.08;100578.94;5973284;29;20374;-50
2021/08/01 10:15:32;;;;;;;4.13;3.72;;;;;;;20.91;55.03;100577.66;5972684;29;20634;-56
2021/08/01 10:18:53;;;;;;;4.97;4.40;;;;;;;20.32;56.56;100572.88;5972464;29;20236;-54
2021/08/01 10:22:14;;;;;;;4.32;4.00;;;;;;;20.81;55.37;100582.59;5984173;29;20237;-50
2021/08/01 10:25:36;;;;;;;5.10;4.57;;;;;;;20.53;56.74;100577.91;5979534;29;20240;-53
2021/08/01 10:29:00;;;;;;;4.65;3.97;;;;;;;20.57;57.36;100585.63;5982036;29;20235;-51
2021/08/01 10:32:25;;;;;;;8.00;6.47;;;;;;;19.55;62.56;100583.88;5976885;29;20243;-52
2021/08/01 10:35:52;;;;;;;6.97;5.75;;;;;;;20.17;60.93;100577.19;5976503;29;20251;-49
2021/08/01 10:39:14;;;;;;;6.53;5.93;;;;;;;20.40;59.90;100580.41;5973891;29;20243;-49
2021/08/01 10:42:37;;;;;;;6.70;6.15;;;;;;;20.89;59.28;100579.53;5967739;29;20227;-50
2021/08/01 10:45:59;;;;;;;5.75;5.18;;;;;;;20.74;58.67;100573.28;5980255;29;20259;-51
2021/08/01 10:49:22;;;;;;;7.18;6.55;;;;;;;20.39;58.67;100570.75;5973862;29;20552;-52
2021/08/01 10:52:43;;;;;;;5.88;5.38;;;;;;;20.66;57.58;100584.28;5964426;29;20232;-55
2021/08/01 10:56:32;;;;;;;5.80;5.03;;;;;;;20.84;58.19;100571.84;5969098;29;20322;-54
2021/08/01 11:00:10;;;;;;;5.63;5.13;;;;;;;21.53;55.70;100575.84;5965125;29;20232;-49
2021/08/01 11:03:32;;;;;;;6.25;4.80;;;;;;;20.91;56.85;100567.06;5971374;29;20228;-53
2021/08/01 11:06:54;;;;;;;4.78;4.38;;;;;;;21.18;55.74;100570.78;5976151;29;20245;-53
2021/08/01 11:10:24;;;;;;;5.03;4.63;;;;;;;21.58;54.59;100559.72;5963753;29;20820;-50
2021/08/01 11:13:46;;;;;;;4.10;3.80;;;;;;;21.86;53.31;100555.41;5974694;29;20675;-49
2021/08/01 11:17:07;;;;;;;3.78;3.47;;;;;;;23.16;50.05;100554.31;5970814;29;20229;-53
2021/08/01 11:20:47;;;;;;;4.38;3.90;;;;;;;22.51;52.03;100542.53;5959306;29;20240;-52
2021/08/01 11:24:12;;;;;;;3.70;3.40;;;;;;;22.78;51.54;100539.94;5970850;29;20249;-51
2021/08/01 11:27:33;;;;;;;4.10;3.42;;;;;;;21.82;54.16;100555.56;5972812;29;20244;-51
2021/08/01 11:31:21;;;;;;;6.47;3.70;;;;;;;21.13;57.71;100569.31;5978238;29;20564;-53
2021/08/01 11:34:42;;;;;;;3.58;2.97;;;;;;;21.01;58.92;100585.00;5971889;29;20952;-52
2021/08/01 11:38:10;;;;;;;5.20;4.15;;;;;;;20.94;61.90;100606.59;5975796;29;20905;-54
2021/08/01 11:41:41;;;;;;;7.35;3.95;;;;;;;20.66;62.44;100626.63;5964670;29;20324;-52
2021/08/01 11:45:06;;;;;;;5.55;3.45;;;;;;;20.26;64.92;100619.00;5966733;29;20247;-51
2021/08/01 11:48:27;;;;;;;7.05;3.65;;;;;;;20.26;64.74;100620.78;5970228;29;20267;-53
2021/08/01 11:51:49;;;;;;;5.85;3.63;;;;;;;20.31;63.98;100610.81;5980744;29;20922;-52
2021/08/01 11:55:12;;;;;;;5.20;3.53;;;;;;;20.40;64.43;100610.34;5975293;29;20267;-53
2021/08/01 11:58:36;;;;;;;4.53;3.47;;;;;;;20.30;65.11;100598.53;5975810;29;20232;-47
2021/08/01 12:01:58;;;;;;;5.95;3.30;;;;;;;20.89;63.75;100606.00;5979949;29;20868;-53
2021/08/01 12:05:19;;;;;;;3.85;2.95;;;;;;;21.36;61.86;100608.59;5981581;29;20239;-51
2021/08/01 12:08:40;;;;;;;6.65;3.55;;;;;;;20.89;63.19;100601.53;5971717;29;20573;-50
2021/08/01 12:12:05;;;;;;;3.55;3.25;;;;;;;20.75;63.44;100598.81;5965467;29;20927;-51
2021/08/01 12:15:27;;;;;;;3.50;3.10;;;;;;;20.59;63.97;100615.53;5959829;29;20231;-54
2021/08/01 12:18:48;;;;;;;3.25;3.00;;;;;;;20.58;64.63;100613.78;5975000;29;20243;-52
2021/08/01 12:22:11;;;;;;;2.92;2.65;;;;;;;20.88;63.40;100607.78;5985723;29;20950;-48
2021/08/01 12:25:31;;;;;;;3.85;2.90;;;;;;;20.79;64.43;100611.78;5979511;29;20235;-52
2021/08/01 12:28:52;;;;;;;3.38;3.08;;;;;;;20.61;65.00;100618.94;5986886;29;20240;-49
2021/08/01 12:32:24;;;;;;;4.55;3.10;;;;;;;20.74;64.33;100620.91;5981054;29;20527;-55
2021/08/01 12:35:45;;;;;;;4.18;3.40;;;;;;;20.29;66.64;100628.56;5965993;29;20607;-51
2021/08/01 12:39:07;;;;;;;3.65;2.95;;;;;;;20.12;65.41;100641.78;5982031;29;20267;-52
2021/08/01 12:42:28;;;;;;;3.78;2.75;;;;;;;20.60;63.70;100643.66;5969445;29;20245;-51
2021/08/01 12:45:49;;;;;;;2.70;2.50;;;;;;;21.02;62.50;100639.63;5971894;29;20244;-51
2021/08/01 12:49:12;;;;;;;2.53;2.33;;;;;;;20.82;62.55;100647.81;5971195;29;20248;-50
2021/08/01 12:52:34;;;;;;;3.30;3.03;;;;;;;20.29;64.61;100644.41;5973544;29;20239;-54
2021/08/01 12:55:58;;;;;;;3.20;2.90;;;;;;;20.05;64.34;100641.28;5972010;29;20236;-51
2021/08/01 12:59:19;;;;;;;4.10;2.80;;;;;;;19.78;64.80;100659.38;5970656;29;20243;-52
2021/08/01 13:02:41;;;;;;;3.63;3.30;;;;;;;19.72;66.31;100665.81;5971421;29;20236;-50
2021/08/01 13:06:04;;;;;;;3.33;3.00;;;;;;;19.72;66.44;100672.91;5993306;29;20235;-53
2021/08/01 13:09:25;;;;;;;3.78;2.92;;;;;;;19.88;66.46;100670.34;5969915;29;20705;-53
2021/08/01 13:13:09;;;;;;;2.92;2.70;;;;;;;19.88;65.92;100678.28;5969752;29;20228;-47
2021/08/01 13:16:50;;;;;;;2.30;2.10;;;;;;;19.79;66.48;100675.16;5969038;29;20235;-49
2021/08/01 13:20:11;;;;;;;3.90;2.97;;;;;;;19.81;66.40;100677.69;5972994;29;20326;-50
2021/08/01 13:23:41;;;;;;;3.67;3.38;;;;;;;19.72;66.34;100664.97;5973429;29;20346;-49
2021/08/01 13:27:04;;;;;;;6.07;5.55;;;;;;;20.06;65.11;100664.09;5969990;29;20330;-51
2021/08/01 13:30:26;;;;;;;5.63;3.35;;;;;;;20.49;65.26;100661.91;5973692;29;20245;-52
2021/08/01 13:33:57;;;;;;;3.65;3.22;;;;;;;20.72;64.40;100665.13;5978529;29;20232;-52
2021/08/01 13:37:23;;;;;;;3.88;2.78;;;;;;;20.62;62.81;100662.97;5968390;29;20872;-53
2021/08/01 13:40:45;;;;;;;2.92;2.53;;;;;;;20.58;63.75;100658.75;5967921;29;20585;-51
2021/08/01 13:44:14;;;;;;;4.25;2.63;;;;;;;21.39;61.21;100664.03;5972771;29;20244;-53
2021/08/01 13:47:35;;;;;;;2.75;2.40;;;;;;;22.03;58.70;100653.31;5969876;29;20346;-54
2021/08/01 13:50:56;;;;;;;2.33;2.20;;;;;;;22.54;58.67;100645.81;5975959;29;20240;-51
2021/08/01 13:54:17;;;;;;;1.70;1.60;;;;;;;22.76;55.76;100647.13;5977594;29;20247;-50
2021/08/01 13:57:39;;;;;;;5.60;3.25;;;;;;;23.02;57.55;100634.03;5974126;29;20916;-53
2021/08/01 14:01:00;;;;;;;1.83;1.73;;;;;;;23.36;54.89;100646.84;5970874;29;20247;-52
2021/08/01 14:04:21;;;;;;;3.25;3.05;;;;;;;23.08;55.82;100647.78;5976685;29;20236;-49
2021/08/01 14:07:42;;;;;;;3.60;2.22;;;;;;;23.05;56.86;100641.81;5975606;29;20236;-53
2021/08/01 14:11:03;;;;;;;2.30;1.90;;;;;;;22.46;57.01;100642.78;5967872;29;20654;-53
2021/08/01 14:14:25;;;;;;;2.33;2.13;;;;;;;22.17;57.56;100645.38;5963370;29;20349;-55
2021/08/01 14:17:46;;;;;;;2.55;1.83;;;;;;;21.83;58.14;100642.09;5971041;29;20241;-51
2021/08/01 14:21:07;;;;;;;3.78;2.47;;;;;;;21.27;60.10;100637.38;5978897;29;20318;-50
2021/08/01 14:24:28;;;;;;;4.60;4.20;;;;;;;21.67;61.25;100630.69;5975613;29;20240;-52
2021/08/01 14:27:49;;;;;;;3.83;2.25;;;;;;;22.84;57.59;100631.59;5963851;29;20244;-55
2021/08/01 14:31:15;;;;;;;3.60;3.30;;;;;;;22.77;57.73;100628.47;5973127;29;20236;-51
2021/08/01 14:34:40;;;;;;;2.90;2.55;;;;;;;22.65;56.10;100636.34;5977838;29;20258;-52
2021/08/01 14:38:02;;;;;;;2.60;2.05;;;;;;;22.17;56.64;100637.44;5972563;29;20571;-49
2021/08/01 14:41:24;;;;;;;2.47;1.52;;;;;;;21.66;56.62;100634.28;5975545;29;20247;-51
2021/08/01 14:44:46;;;;;;;3.58;1.58;;;;;;;21.74;56.18;100636.50;5981155;29;20255;-53
2021/08/01 14:48:10;;;;;;;3.35;2.03;;;;;;;21.90;57.00;100631.13;5968511;29;20284;-52
2021/08/01 14:55:13;;;;;;;2.22;1.33;;;;;;;22.41;55.55;100626.28;5962492;29;20241;-52
2021/08/01 14:58:39;;;;;;;1.77;1.20;;;;;;;22.41;55.00;100620.97;5975684;29;20236;-47
2021/08/01 15:02:00;;;;;;;1.63;1.20;;;;;;;21.42;57.60;100632.09;5975592;29;20240;-50
2021/08/01 15:05:41;;;;;;;1.33;1.02;;;;;;;22.45;55.61;100621.66;5967630;29;20545;-52
2021/08/01 15:09:07;;;;;;;1.80;1.70;;;;;;;22.38;57.23;100630.00;5973693;29;20532;-52
2021/08/01 15:12:34;;;;;;;2.25;1.73;;;;;;;23.29;53.38;100616.31;5967356;29;21040;-52
2021/08/01 15:16:00;;;;;;;1.55;1.38;;;;;;;23.42;54.46;100618.16;5962721;29;20247;-53
2021/08/01 15:19:28;;;;;;;1.65;1.55;;;;;;;23.39;54.04;100625.38;5966633;29;20227;-53
2021/08/01 15:22:55;;;;;;;2.53;2.05;;;;;;;23.48;52.85;100623.94;5967201;29;20263;-50
2021/08/01 15:26:18;;;;;;;1.60;1.50;;;;;;;23.30;51.52;100627.78;5964242;29;20240;-49
2021/08/01 15:29:40;;;;;;;2.08;1.90;;;;;;;23.68;51.69;100622.59;5975274;29;20239;-49
2021/08/01 15:33:01;;;;;;;1.38;1.27;;;;;;;23.67;50.64;100628.88;5976015;29;20330;-52
2021/08/01 15:36:22;;;;;;;1.85;1.75;;;;;;;23.04;51.75;100627.69;5965749;29;20244;-53
2021/08/01 15:39:45;;;;;;;2.90;1.60;;;;;;;23.17;50.17;100622.44;5974249;29;20247;-49
2021/08/01 15:43:06;;;;;;;1.58;1.48;;;;;;;23.75;48.69;100625.72;5978272;29;20247;-50
2021/08/01 15:46:27;;;;;;;2.47;1.92;;;;;;;23.76;48.92;100622.09;5971348;29;21554;-54
2021/08/01 15:49:49;;;;;;;2.83;1.95;;;;;;;23.58;50.48;100613.53;5976582;29;20463;-49
2021/08/01 15:53:17;;;;;;;2.35;1.67;;;;;;;22.63;51.69;100619.69;5973452;29;20268;-53
2021/08/01 15:56:45;;;;;;;3.80;2.10;;;;;;;22.53;52.86;100619.41;5961196;29;20270;-52
2021/08/01 16:00:07;;;;;;;2.70;1.60;;;;;;;22.20;52.77;100612.53;5965671;29;20275;-66
2021/08/01 16:03:41;;;;;;;1.92;1.83;;;;;;;22.68;52.37;100614.91;5970518;29;20236;-67